sensor_id;sensor_type;location;lat;lon;timestamp;P1;durP1;ratioP1;P2;durP2;ratioP2
55220;SDS011;41089;51.448;6.604;2023-03-03T00:04:37;69.20;;;37.97;;
55220;SDS011;41089;51.448;6.604;2023-03-03T00:10:38;74.70;;;39.13;;
55220;SDS011;41089;51.448;6.604;2023-03-03T00:16:38;77.65;;;38.90;;
55220;SDS011;41089;51.448;6.604;2023-03-03T00:22:39;67.22;;;36.72;;
55220;SDS011;41089;51.448;6.604;2023-03-03T00:28:43;77.43;;;40.67;;
55220;SDS011;41089;51.448;6.604;2023-03-03T00:34:46;75.88;;;37.25;;
55220;SDS011;41089;51.448;6.604;2023-03-03T00:40:47;76.55;;;40.25;;
55220;SDS011;41089;51.448;6.604;2023-03-03T00:46:48;68.72;;;35.97;;
55220;SDS011;41089;51.448;6.604;2023-03-03T00:53:10;66.57;;;34.40;;
55220;SDS011;41089;51.448;6.604;2023-03-03T00:59:11;70.57;;;38.30;;
55220;SDS011;41089;51.448;6.604;2023-03-03T01:05:15;61.33;;;35.40;;
55220;SDS011;41089;51.448;6.604;2023-03-03T01:11:18;63.85;;;34.58;;
55220;SDS011;41089;51.448;6.604;2023-03-03T01:17:21;66.25;;;36.58;;
55220;SDS011;41089;51.448;6.604;2023-03-03T01:23:23;58.80;;;33.67;;
55220;SDS011;41089;51.448;6.604;2023-03-03T01:29:25;54.45;;;30.20;;
55220;SDS011;41089;51.448;6.604;2023-03-03T01:35:28;55.97;;;31.15;;
55220;SDS011;41089;51.448;6.604;2023-03-03T01:41:30;51.67;;;28.42;;
55220;SDS011;41089;51.448;6.604;2023-03-03T01:47:32;57.63;;;31.23;;
55220;SDS011;41089;51.448;6.604;2023-03-03T01:59:35;56.25;;;31.60;;
55220;SDS011;41089;51.448;6.604;2023-03-03T02:05:37;59.10;;;32.42;;
55220;SDS011;41089;51.448;6.604;2023-03-03T02:11:39;64.68;;;36.15;;
55220;SDS011;41089;51.448;6.604;2023-03-03T02:17:42;55.47;;;32.42;;
55220;SDS011;41089;51.448;6.604;2023-03-03T02:30:13;55.95;;;30.02;;
55220;SDS011;41089;51.448;6.604;2023-03-03T02:36:17;55.67;;;30.58;;
55220;SDS011;41089;51.448;6.604;2023-03-03T02:42:21;48.97;;;27.33;;
55220;SDS011;41089;51.448;6.604;2023-03-03T02:55:20;43.72;;;24.35;;
55220;SDS011;41089;51.448;6.604;2023-03-03T03:01:20;51.27;;;27.23;;
55220;SDS011;41089;51.448;6.604;2023-03-03T03:07:22;51.30;;;27.17;;
55220;SDS011;41089;51.448;6.604;2023-03-03T03:13:22;51.42;;;26.67;;
55220;SDS011;41089;51.448;6.604;2023-03-03T03:19:23;49.08;;;25.55;;
55220;SDS011;41089;51.448;6.604;2023-03-03T03:25:23;50.38;;;25.92;;
55220;SDS011;41089;51.448;6.604;2023-03-03T03:31:24;48.80;;;23.58;;
55220;SDS011;41089;51.448;6.604;2023-03-03T03:37:24;48.47;;;24.53;;
55220;SDS011;41089;51.448;6.604;2023-03-03T03:43:25;45.92;;;24.15;;
55220;SDS011;41089;51.448;6.604;2023-03-03T03:49:25;64.88;;;31.50;;
55220;SDS011;41089;51.448;6.604;2023-03-03T03:55:26;61.27;;;30.67;;
55220;SDS011;41089;51.448;6.604;2023-03-03T04:01:26;54.67;;;27.35;;
55220;SDS011;41089;51.448;6.604;2023-03-03T04:07:28;60.35;;;30.08;;
55220;SDS011;41089;51.448;6.604;2023-03-03T04:13:28;44.97;;;23.50;;
55220;SDS011;41089;51.448;6.604;2023-03-03T04:19:31;44.90;;;25.52;;
55220;SDS011;41089;51.448;6.604;2023-03-03T04:25:32;54.08;;;26.98;;
55220;SDS011;41089;51.448;6.604;2023-03-03T04:31:32;58.58;;;29.60;;
55220;SDS011;41089;51.448;6.604;2023-03-03T04:37:33;62.05;;;29.20;;
55220;SDS011;41089;51.448;6.604;2023-03-03T04:43:33;60.70;;;29.98;;
55220;SDS011;41089;51.448;6.604;2023-03-03T04:49:34;57.20;;;28.40;;
55220;SDS011;41089;51.448;6.604;2023-03-03T04:55:35;68.00;;;33.60;;
55220;SDS011;41089;51.448;6.604;2023-03-03T05:01:36;60.08;;;29.88;;
55220;SDS011;41089;51.448;6.604;2023-03-03T05:07:37;52.63;;;28.37;;
55220;SDS011;41089;51.448;6.604;2023-03-03T05:13:38;60.60;;;31.00;;
55220;SDS011;41089;51.448;6.604;2023-03-03T05:19:39;59.78;;;32.47;;
55220;SDS011;41089;51.448;6.604;2023-03-03T05:25:40;66.53;;;31.85;;
55220;SDS011;41089;51.448;6.604;2023-03-03T05:31:41;74.85;;;36.45;;
55220;SDS011;41089;51.448;6.604;2023-03-03T05:37:41;60.00;;;30.27;;
55220;SDS011;41089;51.448;6.604;2023-03-03T05:43:46;57.83;;;27.95;;
55220;SDS011;41089;51.448;6.604;2023-03-03T05:49:46;53.20;;;27.10;;
55220;SDS011;41089;51.448;6.604;2023-03-03T05:55:47;55.13;;;28.02;;
55220;SDS011;41089;51.448;6.604;2023-03-03T06:01:48;49.60;;;25.48;;
55220;SDS011;41089;51.448;6.604;2023-03-03T06:14:22;60.70;;;29.88;;
55220;SDS011;41089;51.448;6.604;2023-03-03T06:20:22;53.13;;;27.08;;
55220;SDS011;41089;51.448;6.604;2023-03-03T06:26:22;57.20;;;27.40;;
55220;SDS011;41089;51.448;6.604;2023-03-03T06:32:23;51.67;;;27.03;;
55220;SDS011;41089;51.448;6.604;2023-03-03T06:38:23;53.35;;;24.95;;
55220;SDS011;41089;51.448;6.604;2023-03-03T06:44:24;47.60;;;25.70;;
55220;SDS011;41089;51.448;6.604;2023-03-03T06:50:24;49.03;;;25.90;;
55220;SDS011;41089;51.448;6.604;2023-03-03T06:56:25;55.88;;;28.58;;
55220;SDS011;41089;51.448;6.604;2023-03-03T07:02:25;51.03;;;24.77;;
55220;SDS011;41089;51.448;6.604;2023-03-03T07:08:26;50.17;;;24.52;;
55220;SDS011;41089;51.448;6.604;2023-03-03T07:14:29;51.38;;;23.85;;
55220;SDS011;41089;51.448;6.604;2023-03-03T07:20:37;48.33;;;24.35;;
55220;SDS011;41089;51.448;6.604;2023-03-03T07:26:38;53.03;;;27.35;;
55220;SDS011;41089;51.448;6.604;2023-03-03T07:32:39;59.42;;;30.42;;
55220;SDS011;41089;51.448;6.604;2023-03-03T07:38:45;63.92;;;32.35;;
55220;SDS011;41089;51.448;6.604;2023-03-03T07:44:52;66.20;;;32.85;;
55220;SDS011;41089;51.448;6.604;2023-03-03T07:50:58;50.15;;;25.50;;
55220;SDS011;41089;51.448;6.604;2023-03-03T07:57:10;52.55;;;26.65;;
55220;SDS011;41089;51.448;6.604;2023-03-03T08:03:15;49.30;;;23.50;;
55220;SDS011;41089;51.448;6.604;2023-03-03T08:15:18;43.67;;;21.70;;
55220;SDS011;41089;51.448;6.604;2023-03-03T08:21:28;45.50;;;23.17;;
55220;SDS011;41089;51.448;6.604;2023-03-03T08:27:30;44.78;;;21.33;;
55220;SDS011;41089;51.448;6.604;2023-03-03T08:33:31;42.30;;;21.60;;
55220;SDS011;41089;51.448;6.604;2023-03-03T08:39:31;54.67;;;27.10;;
55220;SDS011;41089;51.448;6.604;2023-03-03T08:45:32;52.17;;;23.07;;
55220;SDS011;41089;51.448;6.604;2023-03-03T08:51:33;37.47;;;19.73;;
55220;SDS011;41089;51.448;6.604;2023-03-03T08:57:34;39.28;;;19.05;;
55220;SDS011;41089;51.448;6.604;2023-03-03T09:03:34;41.23;;;19.33;;
55220;SDS011;41089;51.448;6.604;2023-03-03T09:09:34;35.10;;;17.27;;
55220;SDS011;41089;51.448;6.604;2023-03-03T09:15:36;35.70;;;18.08;;
55220;SDS011;41089;51.448;6.604;2023-03-03T09:21:37;37.03;;;18.83;;
55220;SDS011;41089;51.448;6.604;2023-03-03T09:27:37;35.73;;;16.97;;
55220;SDS011;41089;51.448;6.604;2023-03-03T09:33:43;44.42;;;21.67;;
55220;SDS011;41089;51.448;6.604;2023-03-03T09:39:45;36.55;;;18.13;;
55220;SDS011;41089;51.448;6.604;2023-03-03T09:45:57;41.45;;;21.65;;
55220;SDS011;41089;51.448;6.604;2023-03-03T10:05:14;55.20;;;25.95;;
55220;SDS011;41089;51.448;6.604;2023-03-03T10:18:22;51.85;;;25.25;;
55220;SDS011;41089;51.448;6.604;2023-03-03T10:24:32;40.63;;;20.30;;
55220;SDS011;41089;51.448;6.604;2023-03-03T10:36:54;39.05;;;19.70;;
55220;SDS011;41089;51.448;6.604;2023-03-03T11:15:28;39.85;;;18.95;;
55220;SDS011;41089;51.448;6.604;2023-03-03T11:21:34;36.38;;;19.17;;
55220;SDS011;41089;51.448;6.604;2023-03-03T11:27:54;39.37;;;19.07;;
55220;SDS011;41089;51.448;6.604;2023-03-03T11:34:00;38.75;;;20.67;;
55220;SDS011;41089;51.448;6.604;2023-03-03T11:40:19;38.72;;;20.08;;
55220;SDS011;41089;51.448;6.604;2023-03-03T11:46:37;28.58;;;15.63;;
55220;SDS011;41089;51.448;6.604;2023-03-03T11:52:58;34.08;;;19.05;;
55220;SDS011;41089;51.448;6.604;2023-03-03T11:59:08;38.63;;;22.38;;
55220;SDS011;41089;51.448;6.604;2023-03-03T12:11:45;50.53;;;28.80;;
55220;SDS011;41089;51.448;6.604;2023-03-03T12:30:58;46.15;;;26.77;;
55220;SDS011;41089;51.448;6.604;2023-03-03T12:56:12;35.00;;;21.63;;
55220;SDS011;41089;51.448;6.604;2023-03-03T13:02:35;30.27;;;18.27;;
55220;SDS011;41089;51.448;6.604;2023-03-03T13:21:27;26.88;;;15.00;;
55220;SDS011;41089;51.448;6.604;2023-03-03T13:27:36;28.95;;;15.75;;
55220;SDS011;41089;51.448;6.604;2023-03-03T13:33:51;27.88;;;14.45;;
55220;SDS011;41089;51.448;6.604;2023-03-03T13:46:37;26.53;;;15.30;;
55220;SDS011;41089;51.448;6.604;2023-03-03T14:05:50;26.70;;;14.77;;
55220;SDS011;41089;51.448;6.604;2023-03-03T14:12:03;25.33;;;13.70;;
55220;SDS011;41089;51.448;6.604;2023-03-03T14:24:19;26.00;;;15.05;;
55220;SDS011;41089;51.448;6.604;2023-03-03T14:36:24;26.90;;;14.73;;
55220;SDS011;41089;51.448;6.604;2023-03-03T14:42:56;22.98;;;13.32;;
55220;SDS011;41089;51.448;6.604;2023-03-03T14:49:15;23.80;;;14.73;;
55220;SDS011;41089;51.448;6.604;2023-03-03T14:55:32;24.73;;;12.97;;
55220;SDS011;41089;51.448;6.604;2023-03-03T15:01:35;22.40;;;13.82;;
55220;SDS011;41089;51.448;6.604;2023-03-03T15:07:36;24.55;;;13.90;;
55220;SDS011;41089;51.448;6.604;2023-03-03T15:13:37;22.35;;;13.30;;
55220;SDS011;41089;51.448;6.604;2023-03-03T15:19:42;25.73;;;14.25;;
55220;SDS011;41089;51.448;6.604;2023-03-03T15:32:17;25.15;;;14.68;;
55220;SDS011;41089;51.448;6.604;2023-03-03T15:44:37;23.50;;;14.35;;
55220;SDS011;41089;51.448;6.604;2023-03-03T16:03:50;20.23;;;14.02;;
55220;SDS011;41089;51.448;6.604;2023-03-03T16:16:40;23.95;;;16.27;;
55220;SDS011;41089;51.448;6.604;2023-03-03T16:22:52;25.00;;;15.40;;
55220;SDS011;41089;51.448;6.604;2023-03-03T16:36:22;29.27;;;15.40;;
55220;SDS011;41089;51.448;6.604;2023-03-03T16:42:36;19.08;;;14.82;;
55220;SDS011;41089;51.448;6.604;2023-03-03T16:48:41;23.63;;;15.70;;
55220;SDS011;41089;51.448;6.604;2023-03-03T16:55:16;23.80;;;15.02;;
55220;SDS011;41089;51.448;6.604;2023-03-03T17:14:14;24.48;;;15.25;;
55220;SDS011;41089;51.448;6.604;2023-03-03T17:26:33;24.20;;;15.40;;
55220;SDS011;41089;51.448;6.604;2023-03-03T17:45:14;26.38;;;16.75;;
55220;SDS011;41089;51.448;6.604;2023-03-03T17:57:48;23.38;;;15.05;;
55220;SDS011;41089;51.448;6.604;2023-03-03T18:03:54;22.48;;;15.88;;
55220;SDS011;41089;51.448;6.604;2023-03-03T18:22:48;28.23;;;16.02;;
55220;SDS011;41089;51.448;6.604;2023-03-03T18:28:50;26.05;;;17.27;;
55220;SDS011;41089;51.448;6.604;2023-03-03T18:35:14;23.42;;;15.68;;
55220;SDS011;41089;51.448;6.604;2023-03-03T18:41:31;24.90;;;17.33;;
55220;SDS011;41089;51.448;6.604;2023-03-03T19:00:13;25.33;;;15.90;;
55220;SDS011;41089;51.448;6.604;2023-03-03T19:06:32;22.98;;;15.95;;
55220;SDS011;41089;51.448;6.604;2023-03-03T19:12:54;19.98;;;11.95;;
55220;SDS011;41089;51.448;6.604;2023-03-03T19:19:00;18.92;;;10.80;;
55220;SDS011;41089;51.448;6.604;2023-03-03T19:37:45;22.90;;;11.63;;
55220;SDS011;41089;51.448;6.604;2023-03-03T19:57:05;20.20;;;12.02;;
55220;SDS011;41089;51.448;6.604;2023-03-03T20:09:44;14.50;;;9.30;;
55220;SDS011;41089;51.448;6.604;2023-03-03T20:15:51;15.73;;;8.88;;
55220;SDS011;41089;51.448;6.604;2023-03-03T20:28:36;8.85;;;5.72;;
55220;SDS011;41089;51.448;6.604;2023-03-03T21:00:46;8.05;;;3.78;;
55220;SDS011;41089;51.448;6.604;2023-03-03T21:06:52;6.43;;;3.80;;
55220;SDS011;41089;51.448;6.604;2023-03-03T21:12:53;9.32;;;3.67;;
55220;SDS011;41089;51.448;6.604;2023-03-03T21:19:02;4.32;;;3.33;;
55220;SDS011;41089;51.448;6.604;2023-03-03T21:25:04;6.47;;;3.80;;
55220;SDS011;41089;51.448;6.604;2023-03-03T21:31:14;6.05;;;3.72;;
55220;SDS011;41089;51.448;6.604;2023-03-03T21:37:40;6.20;;;3.47;;
55220;SDS011;41089;51.448;6.604;2023-03-03T21:43:46;5.55;;;2.30;;
55220;SDS011;41089;51.448;6.604;2023-03-03T21:49:50;7.53;;;2.33;;
55220;SDS011;41089;51.448;6.604;2023-03-03T21:55:51;6.60;;;2.00;;
55220;SDS011;41089;51.448;6.604;2023-03-03T22:01:52;10.82;;;2.22;;
55220;SDS011;41089;51.448;6.604;2023-03-03T22:07:53;8.03;;;2.10;;
55220;SDS011;41089;51.448;6.604;2023-03-03T22:13:53;6.03;;;2.50;;
55220;SDS011;41089;51.448;6.604;2023-03-03T22:19:53;7.30;;;2.00;;
55220;SDS011;41089;51.448;6.604;2023-03-03T22:25:54;5.78;;;2.08;;
55220;SDS011;41089;51.448;6.604;2023-03-03T22:31:54;7.20;;;2.10;;
55220;SDS011;41089;51.448;6.604;2023-03-03T22:37:55;6.65;;;2.83;;
55220;SDS011;41089;51.448;6.604;2023-03-03T22:43:55;5.63;;;2.80;;
55220;SDS011;41089;51.448;6.604;2023-03-03T22:49:56;8.83;;;2.70;;
55220;SDS011;41089;51.448;6.604;2023-03-03T22:55:56;14.15;;;3.53;;
55220;SDS011;41089;51.448;6.604;2023-03-03T23:01:56;24.45;;;5.90;;
55220;SDS011;41089;51.448;6.604;2023-03-03T23:07:57;13.95;;;3.03;;
55220;SDS011;41089;51.448;6.604;2023-03-03T23:13:57;10.23;;;2.90;;
55220;SDS011;41089;51.448;6.604;2023-03-03T23:19:58;12.67;;;3.60;;
55220;SDS011;41089;51.448;6.604;2023-03-03T23:25:58;10.60;;;3.23;;
55220;SDS011;41089;51.448;6.604;2023-03-03T23:31:58;10.33;;;3.07;;
55220;SDS011;41089;51.448;6.604;2023-03-03T23:37:59;14.05;;;4.10;;
55220;SDS011;41089;51.448;6.604;2023-03-03T23:43:59;8.93;;;2.75;;
55220;SDS011;41089;51.448;6.604;2023-03-03T23:49:59;13.45;;;3.45;;
55220;SDS011;41089;51.448;6.604;2023-03-03T23:56:00;13.40;;;3.33;;
